createdAt,value
2017-09-28T00:02:02.385Z,45.33
2017-09-28T00:04:30.656Z,48.20
2017-09-28T00:06:59.127Z,46.20
2017-09-28T00:09:27.657Z,43.40
2017-09-28T00:11:55.118Z,40.90
2017-09-28T00:14:22.774Z,43.70
2017-09-28T00:16:50.446Z,44.17
2017-09-28T00:19:17.933Z,45.00
2017-09-28T00:21:45.593Z,43.00
2017-09-28T00:24:13.079Z,40.57
2017-09-28T00:26:41.536Z,44.20
2017-09-28T00:29:09.187Z,45.10
2017-09-28T00:31:36.719Z,52.90
2017-09-28T00:34:04.221Z,46.50
2017-09-28T00:36:31.732Z,48.33
2017-09-28T00:38:59.226Z,40.53
2017-09-28T00:41:26.721Z,43.40
2017-09-28T00:43:54.209Z,44.30
2017-09-28T00:46:22.108Z,39.87
2017-09-28T00:48:49.770Z,42.87
2017-09-28T00:51:17.250Z,41.17
2017-09-28T00:53:45.488Z,37.33
2017-09-28T00:56:13.327Z,42.47
2017-09-28T00:58:40.794Z,48.80
2017-09-28T01:01:08.302Z,45.93
2017-09-28T01:03:36.656Z,44.87
2017-09-28T01:06:04.799Z,46.63
2017-09-28T01:08:32.281Z,55.70
2017-09-28T01:10:59.967Z,45.90
2017-09-28T01:13:28.266Z,44.27
2017-09-28T01:15:55.736Z,46.37
2017-09-28T01:18:23.574Z,44.77
2017-09-28T01:20:51.814Z,40.03
2017-09-28T01:23:19.310Z,44.83
2017-09-28T01:25:47.673Z,46.97
2017-09-28T01:28:15.140Z,47.90
2017-09-28T01:30:43.458Z,48.80
2017-09-28T01:33:10.966Z,50.80
2017-09-28T01:35:38.511Z,60.30
2017-09-28T01:38:05.973Z,44.30
2017-09-28T01:40:33.827Z,48.07
2017-09-28T01:43:01.660Z,47.60
2017-09-28T01:45:29.215Z,43.50
2017-09-28T01:47:56.705Z,47.93
2017-09-28T01:50:24.239Z,52.33
2017-09-28T01:52:52.032Z,47.53
2017-09-28T01:55:19.505Z,50.10
2017-09-28T01:57:47.913Z,49.77
2017-09-28T02:00:16.183Z,44.10
2017-09-28T02:02:44.499Z,45.97
2017-09-28T02:05:11.960Z,47.13
2017-09-28T02:07:39.466Z,51.00
2017-09-28T02:10:07.754Z,52.17
2017-09-28T02:12:36.749Z,48.63
2017-09-28T02:15:05.045Z,45.07
2017-09-28T02:17:32.559Z,51.23
2017-09-28T02:20:00.029Z,45.67
2017-09-28T02:22:28.510Z,46.20
2017-09-28T02:24:56.746Z,48.80
2017-09-28T02:27:24.269Z,44.57
2017-09-28T02:29:52.561Z,46.77
2017-09-28T02:32:20.065Z,44.00
2017-09-28T02:34:47.538Z,44.43
2017-09-28T02:37:16.006Z,50.40
2017-09-28T02:39:44.979Z,47.33
2017-09-28T02:42:12.453Z,48.60
2017-09-28T02:44:40.324Z,51.20
2017-09-28T02:47:09.339Z,44.33
2017-09-28T02:49:37.558Z,50.37
2017-09-28T02:52:05.308Z,56.67
2017-09-28T02:54:32.787Z,48.90
2017-09-28T02:57:00.287Z,47.00
2017-09-28T02:59:28.525Z,43.07
2017-09-28T03:01:55.997Z,49.27
2017-09-28T03:04:24.237Z,46.27
2017-09-28T03:06:51.842Z,49.87
2017-09-28T03:09:20.085Z,48.77
2017-09-28T03:11:47.888Z,49.93
2017-09-28T03:14:15.461Z,46.67
2017-09-28T03:16:42.960Z,50.23
2017-09-28T03:19:10.613Z,51.23
2017-09-28T03:21:38.095Z,50.53
2017-09-28T03:24:05.578Z,47.73
2017-09-28T03:26:33.854Z,49.90
2017-09-28T03:29:02.717Z,50.97
2017-09-28T03:31:30.198Z,50.57
2017-09-28T03:33:58.749Z,54.60
2017-09-28T03:36:26.220Z,56.97
2017-09-28T03:38:54.274Z,61.73
2017-09-28T03:41:21.982Z,60.20
2017-09-28T03:43:50.221Z,54.87
2017-09-28T03:46:17.839Z,60.13
2017-09-28T03:48:45.364Z,68.97
2017-09-28T03:51:14.070Z,71.43
2017-09-28T03:53:41.590Z,52.90
2017-09-28T03:56:09.454Z,60.97
2017-09-28T03:58:36.977Z,58.63
2017-09-28T04:01:04.483Z,50.63
2017-09-28T04:03:32.150Z,56.10
2017-09-28T04:06:00.570Z,54.03
2017-09-28T04:08:28.969Z,58.43
2017-09-28T04:10:56.712Z,64.73
2017-09-28T04:13:24.236Z,48.97
2017-09-28T04:15:51.805Z,59.40
2017-09-28T04:18:20.515Z,61.90
2017-09-28T04:20:47.983Z,61.07
2017-09-28T04:23:16.268Z,62.10
2017-09-28T04:25:43.798Z,56.70
2017-09-28T04:28:11.273Z,57.80
2017-09-28T04:30:38.746Z,52.90
2017-09-28T04:33:06.781Z,47.10
2017-09-28T04:35:34.246Z,59.70
2017-09-28T04:38:01.703Z,52.10
2017-09-28T04:40:29.345Z,64.33
2017-09-28T04:42:57.638Z,53.10
2017-09-28T04:45:25.112Z,48.83
2017-09-28T04:47:52.714Z,55.20
2017-09-28T04:50:21.009Z,53.77
2017-09-28T04:52:49.247Z,50.43
2017-09-28T04:55:16.924Z,58.77
2017-09-28T04:57:44.390Z,62.13
2017-09-28T05:00:11.882Z,55.07
2017-09-28T05:02:39.538Z,67.07
2017-09-28T05:05:07.035Z,60.70
2017-09-28T05:07:34.500Z,71.47
2017-09-28T05:10:01.998Z,58.03
2017-09-28T05:12:30.742Z,57.07
2017-09-28T05:14:58.239Z,63.23
2017-09-28T05:17:26.501Z,67.33
2017-09-28T05:19:54.060Z,63.20
2017-09-28T05:22:21.557Z,68.07
2017-09-28T05:24:49.404Z,66.80
2017-09-28T05:27:17.762Z,74.23
2017-09-28T05:29:45.229Z,59.67
2017-09-28T05:32:13.853Z,56.27
2017-09-28T05:34:41.686Z,62.43
2017-09-28T05:37:10.068Z,57.83
2017-09-28T05:39:38.678Z,59.93
2017-09-28T05:42:06.168Z,65.63
2017-09-28T05:44:33.678Z,64.00
2017-09-28T05:47:01.417Z,71.83
2017-09-28T05:49:29.683Z,65.80
2017-09-28T05:51:57.246Z,67.80
2017-09-28T05:54:24.782Z,72.93
2017-09-28T05:56:52.309Z,71.53
2017-09-28T05:59:19.768Z,59.53
2017-09-28T06:01:47.496Z,64.70
2017-09-28T06:04:14.998Z,65.53
2017-09-28T06:06:42.464Z,59.13
2017-09-28T06:09:10.259Z,66.00
2017-09-28T06:11:37.791Z,60.47
2017-09-28T06:14:05.286Z,68.97
2017-09-28T06:16:32.978Z,56.50
2017-09-28T06:19:00.447Z,60.77
2017-09-28T06:21:28.173Z,66.33
2017-09-28T06:23:56.449Z,57.80
2017-09-28T06:26:24.042Z,60.57
2017-09-28T06:28:51.766Z,59.27
2017-09-28T06:31:20.023Z,61.87
2017-09-28T06:33:47.662Z,52.63
2017-09-28T06:36:16.059Z,59.47
2017-09-28T06:38:43.640Z,56.37
2017-09-28T06:41:11.183Z,63.07
2017-09-28T06:43:38.947Z,60.37
2017-09-28T06:46:06.433Z,57.83
2017-09-28T06:48:35.004Z,54.47
2017-09-28T06:51:02.679Z,59.27
2017-09-28T06:53:30.950Z,66.17
2017-09-28T06:55:59.174Z,60.70
2017-09-28T06:58:26.708Z,56.43
2017-09-28T07:00:54.212Z,57.37
2017-09-28T07:03:21.676Z,62.70
2017-09-28T07:05:49.369Z,63.43
2017-09-28T07:08:17.621Z,59.90
2017-09-28T07:10:45.232Z,62.17
2017-09-28T07:13:12.955Z,57.33
2017-09-28T07:15:41.231Z,58.33
2017-09-28T07:18:09.508Z,54.77
2017-09-28T07:20:38.569Z,60.60
2017-09-28T07:23:06.053Z,52.97
2017-09-28T07:25:33.672Z,52.13
2017-09-28T07:28:01.697Z,52.43
2017-09-28T07:30:30.073Z,78.33
2017-09-28T07:32:58.329Z,49.93
2017-09-28T07:35:25.907Z,52.70
2017-09-28T07:37:54.226Z,57.40
2017-09-28T07:40:21.731Z,66.10
2017-09-28T07:42:49.435Z,65.33
2017-09-28T07:45:16.964Z,50.93
2017-09-28T07:47:45.229Z,51.30
2017-09-28T07:50:12.865Z,52.00
2017-09-28T07:52:40.402Z,53.97
2017-09-28T07:55:07.977Z,44.97
2017-09-28T07:57:35.566Z,49.40
2017-09-28T08:00:03.044Z,53.23
2017-09-28T08:02:31.270Z,54.23
2017-09-28T08:04:59.010Z,46.03
2017-09-28T08:07:26.493Z,46.67
2017-09-28T08:09:53.983Z,49.93
2017-09-28T08:12:22.471Z,63.60
2017-09-28T08:14:50.742Z,44.83
2017-09-28T08:17:19.018Z,51.67
2017-09-28T08:19:47.857Z,48.03
2017-09-28T08:22:15.483Z,46.47
2017-09-28T08:24:42.987Z,52.17
2017-09-28T08:27:10.645Z,47.60
2017-09-28T08:29:38.114Z,48.23
2017-09-28T08:32:05.955Z,58.07
2017-09-28T08:34:33.633Z,57.13
2017-09-28T08:37:01.103Z,53.13
2017-09-28T08:39:28.640Z,49.93
2017-09-28T08:41:56.166Z,66.17
2017-09-28T08:44:24.414Z,54.87
2017-09-28T08:46:51.901Z,51.10
2017-09-28T08:49:19.634Z,51.23
2017-09-28T08:51:47.938Z,61.47
2017-09-28T08:54:16.170Z,49.80
2017-09-28T08:56:43.861Z,47.77
2017-09-28T08:59:12.141Z,49.40
2017-09-28T09:01:40.452Z,48.50
2017-09-28T09:04:08.404Z,42.90
2017-09-28T09:06:35.932Z,45.33
2017-09-28T09:09:03.427Z,38.80
2017-09-28T09:11:31.245Z,37.83
2017-09-28T09:13:58.830Z,41.50
2017-09-28T09:16:27.082Z,39.73
2017-09-28T09:18:54.998Z,41.53
2017-09-28T09:21:22.478Z,36.67
2017-09-28T09:23:50.033Z,35.00
2017-09-28T09:26:17.585Z,34.33
2017-09-28T09:28:45.058Z,45.83
2017-09-28T09:31:12.605Z,32.87
2017-09-28T09:33:40.129Z,33.17
2017-09-28T09:36:08.386Z,35.90
2017-09-28T09:38:36.642Z,40.23
2017-09-28T09:41:04.574Z,34.60
2017-09-28T09:43:32.071Z,36.87
2017-09-28T09:45:59.580Z,30.80
2017-09-28T09:48:27.216Z,38.83
2017-09-28T09:50:55.495Z,38.13
2017-09-28T09:53:23.726Z,30.77
2017-09-28T09:55:51.633Z,32.13
2017-09-28T09:58:20.044Z,39.10
2017-09-28T10:00:47.536Z,25.37
2017-09-28T10:03:15.325Z,30.07
2017-09-28T10:05:43.799Z,33.60
2017-09-28T10:08:16.203Z,26.67
2017-09-28T10:10:56.273Z,29.57
2017-09-28T10:13:26.676Z,25.00
2017-09-28T10:15:59.881Z,27.03
2017-09-28T10:18:27.376Z,23.43
2017-09-28T10:20:55.072Z,28.77
2017-09-28T10:23:22.576Z,27.17
2017-09-28T10:25:50.093Z,27.63
2017-09-28T10:28:18.401Z,21.63
2017-09-28T10:30:45.933Z,20.37
2017-09-28T10:33:14.407Z,19.30
2017-09-28T10:35:42.832Z,22.33
2017-09-28T10:38:10.605Z,21.63
2017-09-28T10:40:38.157Z,19.90
2017-09-28T10:43:06.478Z,25.43
2017-09-28T10:45:46.338Z,18.53
2017-09-28T10:48:14.614Z,20.27
2017-09-28T10:50:43.787Z,20.40
2017-09-28T10:53:11.286Z,15.63
2017-09-28T10:55:39.425Z,19.70
2017-09-28T10:58:06.898Z,22.13
2017-09-28T11:00:35.176Z,20.90
2017-09-28T11:03:03.430Z,21.57
2017-09-28T11:05:30.906Z,20.40
2017-09-28T11:07:59.221Z,22.83
2017-09-28T11:10:26.697Z,30.37
2017-09-28T11:12:54.214Z,23.40
2017-09-28T11:15:21.754Z,17.43
2017-09-28T11:17:50.066Z,31.50
2017-09-28T11:20:17.535Z,20.80
2017-09-28T11:22:45.247Z,19.50
2017-09-28T11:25:12.710Z,19.90
2017-09-28T11:27:41.196Z,33.63
2017-09-28T11:30:09.668Z,23.00
2017-09-28T11:32:37.951Z,21.20
2017-09-28T11:35:06.250Z,17.27
2017-09-28T11:37:33.916Z,22.43
2017-09-28T11:40:01.417Z,26.10
2017-09-28T11:42:29.428Z,22.37
2017-09-28T11:44:57.674Z,24.40
2017-09-28T11:47:25.163Z,20.53
2017-09-28T11:49:53.687Z,20.50
2017-09-28T11:52:21.181Z,22.60
2017-09-28T11:54:49.452Z,20.97
2017-09-28T11:57:17.118Z,19.07
2017-09-28T11:59:44.681Z,27.10
2017-09-28T12:02:12.267Z,21.30
2017-09-28T12:04:39.893Z,16.00
2017-09-28T12:07:07.378Z,33.40
2017-09-28T12:09:35.830Z,19.37
2017-09-28T12:12:03.533Z,20.20
2017-09-28T12:14:30.995Z,22.10
2017-09-28T12:16:58.473Z,16.47
2017-09-28T12:19:26.170Z,19.50
2017-09-28T12:21:54.478Z,16.23
2017-09-28T12:24:22.478Z,13.97
2017-09-28T12:26:50.096Z,16.07
2017-09-28T12:29:18.336Z,14.50
2017-09-28T12:31:45.895Z,28.50
2017-09-28T12:34:14.446Z,29.03
2017-09-28T12:36:41.978Z,16.43
2017-09-28T12:39:10.210Z,13.43
2017-09-28T12:41:37.915Z,11.40
2017-09-28T12:44:05.374Z,13.90
2017-09-28T12:46:32.875Z,19.90
2017-09-28T12:49:00.679Z,16.70
2017-09-28T12:51:28.934Z,15.00
2017-09-28T12:53:56.948Z,14.13
2017-09-28T12:56:34.558Z,19.50
2017-09-28T12:59:02.059Z,24.67
2017-09-28T13:01:29.540Z,19.50
2017-09-28T13:03:58.022Z,16.03
2017-09-28T13:06:26.846Z,17.30
2017-09-28T13:08:54.378Z,18.33
2017-09-28T13:11:23.227Z,20.83
2017-09-28T13:13:50.854Z,12.67
2017-09-28T13:16:18.328Z,14.50
2017-09-28T13:18:46.039Z,13.00
2017-09-28T13:21:14.312Z,18.20
2017-09-28T13:23:42.562Z,11.17
2017-09-28T13:26:20.968Z,11.40
2017-09-28T13:28:48.467Z,17.30
2017-09-28T13:31:16.751Z,19.57
2017-09-28T13:33:45.022Z,15.20
2017-09-28T13:36:13.240Z,9.07
2017-09-28T13:38:40.745Z,14.87
2017-09-28T13:41:09.273Z,14.00
2017-09-28T13:43:37.417Z,15.10
2017-09-28T13:46:04.895Z,12.20
2017-09-28T13:48:32.394Z,12.43
2017-09-28T13:50:59.867Z,11.33
2017-09-28T13:53:28.108Z,16.57
2017-09-28T13:55:55.859Z,11.60
2017-09-28T13:58:23.333Z,11.20
2017-09-28T14:00:50.814Z,18.40
2017-09-28T14:03:19.346Z,9.17
2017-09-28T14:05:46.905Z,10.70
2017-09-28T14:08:14.570Z,14.43
2017-09-28T14:10:42.113Z,10.97
2017-09-28T14:13:09.581Z,12.47
2017-09-28T14:15:37.121Z,17.97
2017-09-28T14:18:04.860Z,12.23
2017-09-28T14:20:32.340Z,16.03
2017-09-28T14:22:59.827Z,13.70
2017-09-28T14:25:27.997Z,12.60
2017-09-28T14:27:55.482Z,18.93
2017-09-28T14:30:22.978Z,11.70
2017-09-28T14:32:50.770Z,14.40
2017-09-28T14:35:18.362Z,12.57
2017-09-28T14:37:45.859Z,10.97
2017-09-28T14:40:14.339Z,14.77
2017-09-28T14:42:42.601Z,15.80
2017-09-28T14:45:10.080Z,15.70
2017-09-28T14:47:37.630Z,13.50
2017-09-28T14:50:05.902Z,11.53
2017-09-28T14:52:34.192Z,18.03
2017-09-28T14:55:02.792Z,13.73
2017-09-28T14:57:30.298Z,13.43
2017-09-28T14:59:57.777Z,15.93
2017-09-28T15:02:26.046Z,20.53
2017-09-28T15:04:54.296Z,19.73
2017-09-28T15:07:21.801Z,11.27
2017-09-28T15:09:50.147Z,17.30
2017-09-28T15:12:18.408Z,14.20
2017-09-28T15:14:45.911Z,21.30
2017-09-28T15:17:13.426Z,18.87
2017-09-28T15:19:40.929Z,15.03
2017-09-28T15:22:08.430Z,18.17
2017-09-28T15:24:36.166Z,15.03
2017-09-28T15:27:03.663Z,11.03
2017-09-28T15:29:31.177Z,13.43
2017-09-28T15:31:58.673Z,14.03
2017-09-28T15:34:26.180Z,20.77
2017-09-28T15:36:53.676Z,19.97
2017-09-28T15:39:21.418Z,15.23
2017-09-28T15:41:48.905Z,13.20
2017-09-28T15:44:16.384Z,14.70
2017-09-28T15:46:44.069Z,11.27
2017-09-28T15:49:13.170Z,10.53
2017-09-28T15:51:41.432Z,9.27
2017-09-28T15:54:09.927Z,18.50
2017-09-28T15:56:38.231Z,11.10
2017-09-28T15:59:05.739Z,9.60
2017-09-28T16:01:33.246Z,19.87
2017-09-28T16:04:00.758Z,10.90
2017-09-28T16:06:29.105Z,9.60
2017-09-28T16:08:58.153Z,11.00
2017-09-28T16:11:25.717Z,10.90
2017-09-28T16:13:53.222Z,7.47
2017-09-28T16:16:20.794Z,9.97
2017-09-28T16:18:48.282Z,9.60
2017-09-28T16:21:15.893Z,8.30
2017-09-28T16:23:43.376Z,7.30
2017-09-28T16:26:10.979Z,8.07
2017-09-28T16:28:38.460Z,9.90
2017-09-28T16:31:05.961Z,11.70
2017-09-28T16:33:33.590Z,11.50
2017-09-28T16:36:01.085Z,9.13
2017-09-28T16:38:29.353Z,7.57
2017-09-28T16:40:57.483Z,7.80
2017-09-28T16:43:24.975Z,12.77
2017-09-28T16:45:52.496Z,10.10
2017-09-28T16:48:20.068Z,6.80
2017-09-28T16:50:47.562Z,11.90
2017-09-28T16:53:15.875Z,12.03
2017-09-28T16:55:43.461Z,7.57
2017-09-28T16:58:11.047Z,7.70
2017-09-28T17:00:39.592Z,7.30
2017-09-28T17:03:07.426Z,11.00
2017-09-28T17:05:34.971Z,8.10
2017-09-28T17:08:03.227Z,14.97
2017-09-28T17:10:30.758Z,15.37
2017-09-28T17:12:58.242Z,7.93
2017-09-28T17:15:25.818Z,8.10
2017-09-28T17:17:53.364Z,10.10
2017-09-28T17:20:20.823Z,13.43
2017-09-28T17:22:49.108Z,20.03
2017-09-28T17:25:17.518Z,8.40
2017-09-28T17:27:45.062Z,16.30
2017-09-28T17:30:13.353Z,13.47
2017-09-28T17:32:41.295Z,16.17
2017-09-28T17:35:10.151Z,18.17
2017-09-28T17:37:38.107Z,30.07
2017-09-28T17:40:07.401Z,11.77
2017-09-28T17:42:34.905Z,14.70
2017-09-28T17:45:03.821Z,12.70
2017-09-28T17:47:31.823Z,13.43
2017-09-28T17:49:59.437Z,19.10
2017-09-28T17:52:27.038Z,13.20
2017-09-28T17:54:54.766Z,16.70
2017-09-28T17:57:22.276Z,13.63
2017-09-28T17:59:49.765Z,14.67
2017-09-28T18:02:18.246Z,18.50
2017-09-28T18:04:47.498Z,19.07
2017-09-28T18:07:15.033Z,14.40
2017-09-28T18:09:43.718Z,14.83
2017-09-28T18:12:11.328Z,13.23
2017-09-28T18:14:39.105Z,19.47
2017-09-28T18:17:06.611Z,22.20
2017-09-28T18:19:34.170Z,10.77
2017-09-28T18:22:01.682Z,12.87
2017-09-28T18:24:32.872Z,12.67
2017-09-28T18:27:00.358Z,14.10
2017-09-28T18:29:27.894Z,12.57
2017-09-28T18:31:55.392Z,16.93
2017-09-28T18:34:22.870Z,13.33
2017-09-28T18:36:51.407Z,15.60
2017-09-28T18:39:18.880Z,18.00
2017-09-28T18:41:46.399Z,19.90
2017-09-28T18:44:13.912Z,17.40
2017-09-28T18:46:42.168Z,20.57
2017-09-28T18:49:10.006Z,13.93
2017-09-28T18:51:37.507Z,18.57
2017-09-28T18:54:04.993Z,18.53
2017-09-28T18:56:33.330Z,16.97
2017-09-28T18:59:00.983Z,15.83
2017-09-28T19:01:38.912Z,19.57
2017-09-28T19:04:07.219Z,17.00
2017-09-28T19:06:34.723Z,16.57
2017-09-28T19:09:02.220Z,24.47
2017-09-28T19:11:30.527Z,18.30
2017-09-28T19:13:58.364Z,16.00
2017-09-28T19:16:26.616Z,20.30
2017-09-28T19:18:54.089Z,18.43
2017-09-28T19:21:22.376Z,19.20
2017-09-28T19:23:50.681Z,22.23
2017-09-28T19:26:18.442Z,14.93
2017-09-28T19:28:46.034Z,25.30
2017-09-28T19:31:13.540Z,28.23
2017-09-28T19:33:41.082Z,20.40
2017-09-28T19:36:09.367Z,17.70
2017-09-28T19:38:37.905Z,32.27
2017-09-28T19:41:05.463Z,24.77
2017-09-28T19:43:33.966Z,42.13
2017-09-28T19:46:02.359Z,53.73
2017-09-28T19:48:30.603Z,50.63
2017-09-28T19:51:00.240Z,31.50
2017-09-28T19:53:28.518Z,35.57
2017-09-28T19:55:57.010Z,39.50
2017-09-28T19:58:25.343Z,40.43
2017-09-28T20:00:52.918Z,61.27
2017-09-28T20:03:21.229Z,66.60
2017-09-28T20:05:49.557Z,37.10
2017-09-28T20:08:17.084Z,38.43
2017-09-28T20:10:44.668Z,42.67
2017-09-28T20:13:12.179Z,35.60
2017-09-28T20:15:40.558Z,76.47
2017-09-28T20:18:08.801Z,52.67
2017-09-28T20:20:36.326Z,63.60
2017-09-28T20:23:03.909Z,61.43
2017-09-28T20:25:31.543Z,66.37
2017-09-28T20:27:59.148Z,39.87
2017-09-28T20:30:26.639Z,48.63
2017-09-28T20:32:54.170Z,51.53
2017-09-28T20:35:21.737Z,72.50
2017-09-28T20:37:50.006Z,60.83
2017-09-28T20:40:18.289Z,51.93
2017-09-28T20:42:46.530Z,45.23
2017-09-28T20:45:14.027Z,31.10
2017-09-28T20:47:42.496Z,42.17
2017-09-28T20:50:10.766Z,36.17
2017-09-28T20:52:39.022Z,33.87
2017-09-28T20:55:06.547Z,37.80
2017-09-28T20:57:34.101Z,36.63
2017-09-28T21:00:01.722Z,30.07
2017-09-28T21:02:29.198Z,34.00
2017-09-28T21:04:57.495Z,22.93
2017-09-28T21:07:25.014Z,27.67
2017-09-28T21:09:52.488Z,31.00
2017-09-28T21:12:21.043Z,25.60
2017-09-28T21:14:48.596Z,32.43
2017-09-28T21:17:16.425Z,25.87
2017-09-28T21:19:44.815Z,32.17
2017-09-28T21:22:12.328Z,24.63
2017-09-28T21:24:40.576Z,23.60
2017-09-28T21:27:09.530Z,23.27
2017-09-28T21:29:37.056Z,32.93
2017-09-28T21:32:05.531Z,23.30
2017-09-28T21:34:33.801Z,21.60
2017-09-28T21:37:02.182Z,22.80
2017-09-28T21:39:31.167Z,29.10
2017-09-28T21:41:59.402Z,22.10
2017-09-28T21:44:26.918Z,32.70
2017-09-28T21:46:55.325Z,16.80
2017-09-28T21:49:22.801Z,20.43
2017-09-28T21:51:50.699Z,18.53
2017-09-28T21:54:28.144Z,20.10
2017-09-28T21:56:55.760Z,20.93
2017-09-28T21:59:23.218Z,30.70
2017-09-28T22:01:51.459Z,21.37
2017-09-28T22:04:19.020Z,27.40
2017-09-28T22:06:46.557Z,25.20
2017-09-28T22:09:14.283Z,21.40
2017-09-28T22:11:42.523Z,20.20
2017-09-28T22:14:10.013Z,24.80
2017-09-28T22:16:38.321Z,24.27
2017-09-28T22:19:05.835Z,22.87
2017-09-28T22:21:33.503Z,28.83
2017-09-28T22:24:02.042Z,25.33
2017-09-28T22:26:29.500Z,24.80
2017-09-28T22:28:56.965Z,24.60
2017-09-28T22:31:24.459Z,23.40
2017-09-28T22:33:52.864Z,24.63
2017-09-28T22:36:20.332Z,27.13
2017-09-28T22:38:48.784Z,26.33
2017-09-28T22:41:17.246Z,27.03
2017-09-28T22:43:45.537Z,24.67
2017-09-28T22:46:14.015Z,22.50
2017-09-28T22:48:42.281Z,33.43
2017-09-28T22:51:11.733Z,36.70
2017-09-28T22:53:39.367Z,31.30
2017-09-28T22:56:07.032Z,30.50
2017-09-28T22:58:35.302Z,34.00
2017-09-28T23:01:02.794Z,29.50
2017-09-28T23:03:30.302Z,29.13
2017-09-28T23:05:58.624Z,36.97
2017-09-28T23:08:26.089Z,27.73
2017-09-28T23:10:53.890Z,27.73
2017-09-28T23:13:22.029Z,24.70
2017-09-28T23:15:49.510Z,27.10
2017-09-28T23:18:17.037Z,29.40
2017-09-28T23:20:44.540Z,28.10
2017-09-28T23:23:12.231Z,31.77
2017-09-28T23:25:40.649Z,23.93
2017-09-28T23:28:08.198Z,31.97
2017-09-28T23:30:35.675Z,28.63
2017-09-28T23:33:03.186Z,27.70
2017-09-28T23:35:31.641Z,34.73
2017-09-28T23:37:59.933Z,29.37
2017-09-28T23:40:28.194Z,25.37
2017-09-28T23:42:56.517Z,24.03
2017-09-28T23:45:24.777Z,28.00
2017-09-28T23:47:52.613Z,19.73
2017-09-28T23:50:20.132Z,21.90
2017-09-28T23:52:47.644Z,26.60
2017-09-28T23:55:15.951Z,20.57
2017-09-28T23:57:43.681Z,23.23
